createdAt,value
2022-10-24T00:01:20.056Z,19.20
2022-10-24T00:03:48.075Z,19.30
2022-10-24T00:06:16.201Z,19.30
2022-10-24T00:08:44.185Z,19.30
2022-10-24T00:11:23.535Z,19.40
2022-10-24T00:13:51.240Z,19.40
2022-10-24T00:16:18.579Z,19.40
2022-10-24T00:18:45.519Z,19.40
2022-10-24T00:21:13.026Z,19.50
2022-10-24T00:23:40.209Z,19.50
2022-10-24T00:26:08.098Z,19.50
2022-10-24T00:28:37.498Z,19.50
2022-10-24T00:31:07.601Z,19.50
2022-10-24T00:33:34.740Z,19.60
2022-10-24T00:36:01.673Z,19.60
2022-10-24T00:38:28.454Z,19.60
2022-10-24T00:40:55.331Z,19.60
2022-10-24T00:43:26.234Z,19.60
2022-10-24T00:45:57.691Z,19.70
2022-10-24T00:48:29.158Z,19.70
2022-10-24T00:51:21.560Z,19.70
2022-10-24T00:53:53.598Z,19.70
2022-10-24T00:56:27.662Z,19.70
2022-10-24T00:58:58.067Z,19.70
2022-10-24T01:01:26.187Z,19.70
2022-10-24T01:03:53.104Z,19.70
2022-10-24T01:06:38.003Z,19.70
2022-10-24T01:09:49.736Z,19.70
2022-10-24T01:12:53.850Z,19.70
2022-10-24T01:15:48.829Z,19.70
2022-10-24T01:18:59.912Z,19.80
2022-10-24T01:21:52.652Z,19.70
2022-10-24T01:25:13.443Z,19.80
2022-10-24T01:28:24.700Z,19.70
2022-10-24T01:31:11.661Z,19.70
2022-10-24T01:33:49.028Z,19.70
2022-10-24T01:36:36.705Z,19.70
2022-10-24T01:39:12.014Z,19.70
2022-10-24T01:41:42.388Z,19.70
2022-10-24T01:44:25.773Z,19.70
2022-10-24T01:47:08.616Z,19.70
2022-10-24T01:49:40.162Z,19.70
2022-10-24T01:54:48.846Z,19.70
2022-10-24T01:57:15.714Z,19.80
2022-10-24T01:59:47.308Z,19.80
2022-10-24T02:02:39.670Z,19.70
2022-10-24T02:05:14.930Z,19.80
2022-10-24T02:07:47.334Z,19.80
2022-10-24T02:10:24.132Z,19.80
2022-10-24T02:13:03.553Z,19.70
2022-10-24T02:15:41.047Z,19.80
2022-10-24T02:18:10.513Z,19.80
2022-10-24T02:21:05.113Z,19.80
2022-10-24T02:23:50.846Z,19.80
2022-10-24T02:26:31.438Z,19.80
2022-10-24T02:29:06.569Z,19.80
2022-10-24T02:31:41.065Z,19.80
2022-10-24T02:34:10.026Z,19.80
2022-10-24T02:36:40.169Z,19.80
2022-10-24T02:39:11.634Z,19.80
2022-10-24T02:41:42.941Z,19.80
2022-10-24T02:44:13.402Z,19.70
2022-10-24T02:46:43.009Z,19.70
2022-10-24T02:49:09.937Z,19.70
2022-10-24T02:51:43.034Z,19.80
2022-10-24T02:54:11.101Z,19.70
2022-10-24T02:56:45.867Z,19.70
2022-10-24T02:59:12.696Z,19.70
2022-10-24T03:01:39.528Z,19.70
2022-10-24T03:04:06.963Z,19.60
2022-10-24T03:06:33.719Z,19.70
2022-10-24T03:09:00.532Z,19.60
2022-10-24T03:11:27.354Z,19.50
2022-10-24T03:13:54.148Z,19.60
2022-10-24T03:16:20.890Z,19.60
2022-10-24T03:18:47.694Z,19.50
2022-10-24T03:21:14.498Z,19.50
2022-10-24T03:23:41.290Z,19.50
2022-10-24T03:26:08.062Z,19.50
2022-10-24T03:28:35.125Z,19.40
2022-10-24T03:31:01.889Z,19.40
2022-10-24T03:33:28.631Z,19.40
2022-10-24T03:35:55.908Z,19.40
2022-10-24T03:38:24.138Z,19.40
2022-10-24T03:40:51.402Z,19.40
2022-10-24T03:43:19.096Z,19.60
2022-10-24T03:45:45.960Z,19.30
2022-10-24T03:48:12.937Z,19.40
2022-10-24T03:50:39.932Z,19.40
2022-10-24T03:53:06.756Z,19.40
2022-10-24T03:55:34.736Z,19.40
2022-10-24T03:58:01.599Z,19.40
2022-10-24T04:00:29.078Z,19.40
2022-10-24T04:02:56.416Z,19.40
2022-10-24T04:05:23.286Z,19.40
2022-10-24T04:07:50.043Z,19.40
2022-10-24T04:10:16.940Z,19.30
2022-10-24T04:12:43.679Z,19.30
2022-10-24T04:15:11.071Z,19.30
2022-10-24T04:17:37.812Z,19.30
2022-10-24T04:20:05.912Z,19.30
2022-10-24T04:22:32.689Z,19.30
2022-10-24T04:24:59.435Z,19.30
2022-10-24T04:27:26.593Z,19.30
2022-10-24T04:29:53.295Z,19.30
2022-10-24T04:32:20.141Z,19.30
2022-10-24T04:34:47.064Z,19.20
2022-10-24T04:37:13.910Z,19.30
2022-10-24T04:39:40.796Z,19.20
2022-10-24T04:42:07.514Z,19.20
2022-10-24T04:44:34.276Z,19.20
2022-10-24T04:47:01.009Z,19.20
2022-10-24T04:49:27.773Z,19.20
2022-10-24T04:51:54.526Z,19.20
2022-10-24T04:54:21.290Z,19.10
2022-10-24T04:56:48.021Z,19.20
2022-10-24T04:59:14.758Z,19.10
2022-10-24T05:01:41.512Z,19.10
2022-10-24T05:04:08.316Z,19.00
2022-10-24T05:06:35.187Z,19.00
2022-10-24T05:09:01.918Z,19.00
2022-10-24T05:11:28.663Z,19.00
2022-10-24T05:13:55.355Z,18.90
2022-10-24T05:16:22.065Z,18.90
2022-10-24T05:18:49.417Z,18.90
2022-10-24T05:21:16.385Z,18.90
2022-10-24T05:23:43.410Z,18.90
2022-10-24T05:26:10.179Z,18.90
2022-10-24T05:28:36.916Z,18.80
2022-10-24T05:31:03.818Z,18.80
2022-10-24T05:33:30.543Z,18.80
2022-10-24T05:35:57.396Z,18.70
2022-10-24T05:38:24.801Z,18.70
2022-10-24T05:40:51.550Z,18.70
2022-10-24T05:43:18.706Z,18.70
2022-10-24T05:45:48.561Z,18.70
2022-10-24T05:48:16.475Z,18.60
2022-10-24T05:50:43.465Z,18.60
2022-10-24T05:53:10.301Z,18.60
2022-10-24T05:55:37.159Z,18.60
2022-10-24T05:58:04.004Z,18.50
2022-10-24T06:00:33.752Z,18.60
2022-10-24T06:03:01.282Z,18.50
2022-10-24T06:05:27.998Z,18.50
2022-10-24T06:07:54.770Z,18.50
2022-10-24T06:10:21.812Z,18.50
2022-10-24T06:12:48.626Z,18.50
2022-10-24T06:15:15.574Z,18.40
2022-10-24T06:17:42.329Z,18.30
2022-10-24T06:20:10.643Z,18.30
2022-10-24T06:22:37.494Z,18.30
2022-10-24T06:25:04.789Z,18.40
2022-10-24T06:27:31.644Z,18.30
2022-10-24T06:29:58.447Z,18.40
2022-10-24T06:32:25.432Z,18.40
2022-10-24T06:34:52.237Z,18.40
2022-10-24T06:37:19.028Z,18.40
2022-10-24T06:39:45.733Z,18.40
2022-10-24T06:42:12.807Z,18.40
2022-10-24T06:44:39.602Z,18.40
2022-10-24T06:47:06.982Z,18.40
2022-10-24T06:49:33.785Z,18.50
2022-10-24T06:52:00.699Z,18.50
2022-10-24T06:54:30.151Z,18.50
2022-10-24T06:56:57.731Z,18.50
2022-10-24T06:59:24.583Z,18.50
2022-10-24T07:01:51.423Z,18.50
2022-10-24T07:04:18.632Z,18.50
2022-10-24T07:06:45.982Z,18.60
2022-10-24T07:09:15.426Z,18.60
2022-10-24T07:11:43.830Z,18.70
2022-10-24T07:14:11.498Z,18.70
2022-10-24T07:16:39.144Z,18.80
2022-10-24T07:19:06.328Z,18.90
2022-10-24T07:21:34.093Z,19.00
2022-10-24T07:24:03.249Z,19.00
2022-10-24T07:26:30.612Z,19.10
2022-10-24T07:31:33.942Z,19.30
2022-10-24T07:34:03.834Z,19.40
2022-10-24T07:36:30.719Z,19.50
2022-10-24T07:38:59.299Z,19.70
2022-10-24T07:41:31.114Z,19.80
2022-10-24T07:44:02.092Z,19.90
2022-10-24T07:46:29.322Z,20.20
2022-10-24T07:48:56.130Z,20.40
2022-10-24T07:51:23.329Z,20.50
2022-10-24T07:53:50.323Z,20.80
2022-10-24T07:56:18.015Z,20.90
2022-10-24T07:58:46.695Z,21.10
2022-10-24T08:01:18.366Z,21.30
2022-10-24T08:03:46.410Z,21.60
2022-10-24T08:06:18.181Z,21.90
2022-10-24T08:08:45.601Z,22.10
2022-10-24T08:11:21.667Z,22.40
2022-10-24T08:13:50.609Z,22.70
2022-10-24T08:16:23.682Z,23.00
2022-10-24T08:18:52.971Z,23.30
2022-10-24T08:21:22.646Z,23.50
2022-10-24T08:23:52.370Z,23.80
2022-10-24T08:26:22.920Z,24.00
2022-10-24T08:28:50.828Z,24.20
2022-10-24T08:31:22.196Z,24.30
2022-10-24T08:33:53.447Z,24.50
2022-10-24T08:36:30.201Z,24.70
2022-10-24T08:38:58.221Z,24.90
2022-10-24T08:41:43.735Z,25.20
2022-10-24T08:44:36.411Z,25.40
2022-10-24T08:47:55.244Z,25.70
2022-10-24T08:50:33.557Z,26.00
2022-10-24T08:53:12.550Z,26.30
2022-10-24T08:55:51.458Z,26.60
2022-10-24T08:58:42.994Z,26.90
2022-10-24T09:01:31.702Z,27.10
2022-10-24T09:04:05.029Z,27.20
2022-10-24T09:06:32.911Z,27.20
2022-10-24T09:09:09.302Z,27.30
2022-10-24T09:12:06.746Z,27.20
2022-10-24T09:14:37.587Z,27.20
2022-10-24T09:17:29.187Z,27.30
2022-10-24T09:20:20.870Z,27.40
2022-10-24T09:22:48.775Z,27.50
2022-10-24T09:25:21.850Z,27.60
2022-10-24T09:27:49.782Z,27.50
2022-10-24T09:30:22.609Z,27.50
2022-10-24T09:32:49.384Z,27.30
2022-10-24T09:35:24.474Z,27.10
2022-10-24T09:37:58.292Z,27.00
2022-10-24T09:40:34.362Z,26.90
2022-10-24T09:43:23.343Z,26.70
2022-10-24T09:46:03.676Z,26.70
2022-10-24T09:48:46.080Z,26.60
2022-10-24T09:51:33.417Z,26.60
2022-10-24T09:54:07.642Z,26.70
2022-10-24T09:56:42.603Z,26.50
2022-10-24T09:59:46.332Z,26.50
2022-10-24T10:02:27.275Z,26.40
2022-10-24T10:05:03.127Z,26.30
2022-10-24T10:07:34.412Z,26.10
2022-10-24T10:10:18.336Z,25.90
2022-10-24T10:13:06.898Z,25.70
2022-10-24T10:15:45.851Z,25.40
2022-10-24T10:18:29.362Z,25.20
2022-10-24T10:21:19.591Z,24.90
2022-10-24T10:23:55.758Z,24.70
2022-10-24T10:26:30.037Z,24.60
2022-10-24T10:29:05.091Z,24.50
2022-10-24T10:31:46.709Z,24.40
2022-10-24T10:34:38.766Z,24.30
2022-10-24T10:37:27.408Z,24.20
2022-10-24T10:40:09.486Z,24.30
2022-10-24T10:43:31.132Z,24.50
2022-10-24T10:46:49.543Z,24.90
2022-10-24T10:49:25.380Z,25.30
2022-10-24T10:52:11.873Z,25.50
2022-10-24T10:54:50.798Z,25.50
2022-10-24T10:57:29.113Z,25.60
2022-10-24T11:00:39.759Z,25.50
2022-10-24T11:03:09.122Z,25.40
2022-10-24T11:06:18.685Z,25.40
2022-10-24T11:09:24.304Z,25.20
2022-10-24T11:12:07.419Z,25.20
2022-10-24T11:14:51.500Z,25.10
2022-10-24T11:17:32.304Z,25.00
2022-10-24T11:20:25.100Z,24.80
2022-10-24T11:23:12.704Z,24.70
2022-10-24T11:25:45.279Z,24.60
2022-10-24T11:28:47.634Z,24.50
2022-10-24T11:31:24.159Z,24.30
2022-10-24T11:34:11.639Z,24.30
2022-10-24T11:37:14.814Z,24.20
2022-10-24T11:40:06.496Z,24.10
2022-10-24T11:43:13.761Z,23.90
2022-10-24T11:45:59.414Z,23.80
2022-10-24T11:48:50.017Z,23.80
2022-10-24T11:51:40.842Z,23.70
2022-10-24T11:54:21.625Z,23.80
2022-10-24T11:56:59.468Z,23.70
2022-10-24T11:59:26.301Z,23.60
2022-10-24T12:01:56.291Z,23.50
2022-10-24T12:04:59.333Z,23.40
2022-10-24T12:07:55.501Z,23.30
2022-10-24T12:10:46.316Z,23.20
2022-10-24T12:13:28.719Z,23.10
2022-10-24T12:16:38.606Z,23.00
2022-10-24T12:19:13.831Z,22.90
2022-10-24T12:21:51.835Z,23.10
2022-10-24T12:24:35.750Z,22.50
2022-10-24T12:27:06.898Z,22.70
2022-10-24T12:29:36.782Z,22.70
2022-10-24T12:32:38.262Z,22.70
2022-10-24T12:35:31.527Z,22.60
2022-10-24T12:37:58.850Z,22.60
2022-10-24T12:41:09.407Z,22.60
2022-10-24T12:43:44.295Z,22.60
2022-10-24T12:46:21.618Z,22.60
2022-10-24T12:48:58.857Z,22.70
2022-10-24T12:51:30.141Z,22.60
2022-10-24T12:54:16.391Z,22.60
2022-10-24T12:56:49.373Z,22.60
2022-10-24T12:59:28.709Z,22.60
2022-10-24T13:02:13.818Z,22.50
2022-10-24T13:05:04.458Z,22.60
2022-10-24T13:08:30.087Z,22.60
2022-10-24T13:11:40.089Z,22.50
2022-10-24T13:14:57.656Z,22.50
2022-10-24T13:17:59.862Z,22.50
2022-10-24T13:20:33.959Z,22.40
2022-10-24T13:23:27.107Z,22.50
2022-10-24T13:25:58.523Z,22.30
2022-10-24T13:28:25.243Z,22.50
2022-10-24T13:31:18.095Z,22.30
2022-10-24T13:33:46.392Z,22.20
2022-10-24T13:36:21.291Z,22.20
2022-10-24T13:38:56.541Z,22.20
2022-10-24T13:41:56.398Z,22.30
2022-10-24T13:44:48.326Z,22.20
2022-10-24T13:47:30.255Z,22.10
2022-10-24T13:50:17.270Z,22.10
2022-10-24T13:52:53.926Z,22.10
2022-10-24T13:55:47.890Z,22.10
2022-10-24T13:58:26.593Z,22.00
2022-10-24T14:01:00.042Z,22.00
2022-10-24T14:03:31.695Z,22.00
2022-10-24T14:06:03.571Z,22.10
2022-10-24T14:08:38.515Z,22.10
2022-10-24T14:11:12.315Z,22.10
2022-10-24T14:13:49.526Z,22.10
2022-10-24T14:16:16.570Z,22.10
2022-10-24T14:18:44.720Z,22.20
2022-10-24T14:21:21.042Z,22.10
2022-10-24T14:23:58.123Z,22.00
2022-10-24T14:26:26.064Z,22.00
2022-10-24T14:28:59.983Z,22.00
2022-10-24T14:31:35.577Z,21.90
2022-10-24T14:34:06.285Z,21.80
2022-10-24T14:36:37.679Z,21.80
2022-10-24T14:39:06.397Z,22.20
2022-10-24T14:41:41.051Z,22.00
2022-10-24T14:44:14.062Z,21.70
2022-10-24T14:46:43.742Z,21.70
2022-10-24T14:49:33.409Z,21.70
2022-10-24T14:52:20.290Z,21.60
2022-10-24T14:55:13.653Z,21.60
2022-10-24T14:57:48.835Z,21.50
2022-10-24T15:00:39.914Z,21.60
2022-10-24T15:03:07.020Z,21.40
2022-10-24T15:05:35.385Z,21.40
2022-10-24T15:08:26.283Z,21.30
2022-10-24T15:11:25.009Z,21.30
2022-10-24T15:14:06.830Z,21.20
2022-10-24T15:16:39.264Z,21.10
2022-10-24T15:19:14.654Z,21.10
2022-10-24T15:21:46.809Z,21.00
2022-10-24T15:24:26.217Z,21.10
2022-10-24T15:27:08.980Z,21.30
2022-10-24T15:29:35.787Z,21.00
2022-10-24T15:32:02.489Z,20.90
2022-10-24T15:34:32.722Z,20.90
2022-10-24T15:36:59.454Z,20.90
2022-10-24T15:39:26.244Z,20.80
2022-10-24T15:41:53.922Z,20.70
2022-10-24T15:44:27.893Z,20.70
2022-10-24T15:46:55.683Z,20.50
2022-10-24T15:49:22.576Z,20.60
2022-10-24T15:51:50.964Z,20.60
2022-10-24T15:54:21.489Z,20.40
2022-10-24T15:56:49.486Z,20.50
2022-10-24T15:59:17.557Z,20.40
2022-10-24T16:02:00.534Z,20.20
2022-10-24T16:04:28.726Z,20.30
2022-10-24T16:06:55.721Z,20.30
2022-10-24T16:09:31.059Z,20.30
2022-10-24T16:11:57.874Z,20.10
2022-10-24T16:14:27.978Z,20.10
2022-10-24T16:16:57.525Z,20.10
2022-10-24T16:19:26.516Z,20.00
2022-10-24T16:21:58.372Z,20.00
2022-10-24T16:24:26.738Z,19.90
2022-10-24T16:26:54.026Z,19.80
2022-10-24T16:29:20.698Z,19.70
2022-10-24T16:31:49.055Z,20.00
2022-10-24T16:34:15.777Z,19.90
2022-10-24T16:36:42.577Z,20.10
2022-10-24T16:39:09.865Z,19.70
2022-10-24T16:41:36.652Z,19.60
2022-10-24T16:44:03.809Z,19.70
2022-10-24T16:46:30.737Z,19.60
2022-10-24T16:48:57.593Z,19.80
2022-10-24T16:51:32.449Z,19.50
2022-10-24T16:54:02.286Z,19.50
2022-10-24T16:56:30.225Z,19.40
2022-10-24T16:58:57.720Z,19.80
2022-10-24T17:01:27.099Z,19.50
2022-10-24T17:03:54.379Z,19.40
2022-10-24T17:06:21.337Z,19.30
2022-10-24T17:08:48.023Z,19.30
2022-10-24T17:11:43.425Z,19.30
2022-10-24T17:14:01.610Z,19.30
2022-10-24T17:16:28.469Z,19.30
2022-10-24T17:19:12.094Z,19.30
2022-10-24T17:21:42.176Z,19.20
2022-10-24T17:24:13.643Z,19.20
2022-10-24T17:26:42.047Z,19.20
2022-10-24T17:29:17.702Z,19.20
2022-10-24T17:31:44.539Z,19.10
2022-10-24T17:34:12.202Z,19.10
2022-10-24T17:36:41.042Z,19.20
2022-10-24T17:41:55.304Z,19.00
2022-10-24T17:44:22.927Z,19.00
2022-10-24T17:46:53.227Z,18.90
2022-10-24T17:49:24.086Z,18.90
2022-10-24T17:51:50.889Z,18.90
2022-10-24T17:54:18.559Z,18.80
2022-10-24T17:56:45.411Z,18.90
2022-10-24T17:59:12.368Z,18.90
2022-10-24T18:01:39.238Z,19.20
2022-10-24T18:04:06.482Z,18.70
2022-10-24T18:06:33.904Z,18.80
2022-10-24T18:09:00.935Z,18.80
2022-10-24T18:11:27.779Z,18.70
2022-10-24T18:13:54.599Z,18.70
2022-10-24T18:16:22.033Z,19.00
2022-10-24T18:18:49.448Z,18.70
2022-10-24T18:23:47.402Z,18.70
2022-10-24T18:26:21.228Z,18.70
2022-10-24T18:28:51.417Z,19.10
2022-10-24T18:31:21.636Z,18.90
2022-10-24T18:33:49.607Z,19.20
2022-10-24T18:36:22.941Z,18.60
2022-10-24T18:38:50.025Z,18.80
2022-10-24T18:41:37.517Z,18.60
2022-10-24T18:44:25.883Z,18.60
2022-10-24T18:46:55.855Z,18.50
2022-10-24T18:49:23.585Z,18.50
2022-10-24T18:52:27.388Z,18.50
2022-10-24T18:55:12.787Z,18.50
2022-10-24T18:57:39.964Z,18.50
2022-10-24T19:00:08.505Z,18.40
2022-10-24T19:03:06.098Z,18.40
2022-10-24T19:05:44.479Z,18.40
2022-10-24T19:08:21.994Z,18.40
2022-10-24T19:10:55.805Z,18.30
2022-10-24T19:13:25.236Z,18.30
2022-10-24T19:16:01.509Z,18.30
2022-10-24T19:18:33.661Z,18.30
2022-10-24T19:21:01.491Z,18.30
2022-10-24T19:23:28.421Z,18.70
2022-10-24T19:25:55.245Z,18.30
2022-10-24T19:28:22.391Z,18.00
2022-10-24T19:30:49.767Z,18.10
2022-10-24T19:33:17.165Z,18.80
2022-10-24T19:35:47.261Z,18.20
2022-10-24T19:38:16.321Z,18.40
2022-10-24T19:40:54.101Z,18.20
2022-10-24T19:43:23.748Z,18.20
2022-10-24T19:46:07.720Z,18.20
2022-10-24T19:48:42.531Z,18.30
2022-10-24T19:51:12.729Z,18.30
2022-10-24T19:53:42.298Z,18.20
2022-10-24T19:56:13.420Z,18.10
2022-10-24T19:58:41.886Z,18.20
2022-10-24T20:01:15.278Z,18.10
2022-10-24T20:03:46.304Z,18.10
2022-10-24T20:06:14.215Z,18.10
2022-10-24T20:08:41.699Z,18.10
2022-10-24T20:11:09.548Z,18.00
2022-10-24T20:13:36.364Z,17.90
2022-10-24T20:16:07.472Z,18.00
2022-10-24T20:18:36.420Z,18.00
2022-10-24T20:21:06.902Z,18.00
2022-10-24T20:23:34.021Z,18.00
2022-10-24T20:26:07.274Z,18.00
2022-10-24T20:28:45.202Z,18.00
2022-10-24T20:31:33.298Z,17.90
2022-10-24T20:34:07.016Z,17.90
2022-10-24T20:36:35.285Z,17.80
2022-10-24T20:39:02.256Z,17.90
2022-10-24T20:41:29.796Z,17.90
2022-10-24T20:43:56.935Z,17.90
2022-10-24T20:46:24.468Z,17.90
2022-10-24T20:48:51.170Z,17.90
2022-10-24T20:51:20.379Z,17.80
2022-10-24T20:53:47.998Z,17.80
2022-10-24T20:56:19.045Z,17.80
2022-10-24T20:58:46.207Z,17.80
2022-10-24T21:01:25.927Z,17.80
2022-10-24T21:03:54.699Z,17.80
2022-10-24T21:06:26.924Z,18.00
2022-10-24T21:09:00.965Z,17.70
2022-10-24T21:11:30.600Z,18.00
2022-10-24T21:14:01.070Z,17.80
2022-10-24T21:16:28.870Z,17.80
2022-10-24T21:18:56.677Z,17.80
2022-10-24T21:21:24.925Z,17.80
2022-10-24T21:23:53.930Z,17.70
2022-10-24T21:26:21.697Z,17.70
2022-10-24T21:28:48.889Z,17.70
2022-10-24T21:31:19.761Z,17.70
2022-10-24T21:33:47.023Z,17.70
2022-10-24T21:36:21.460Z,17.70
2022-10-24T21:38:59.384Z,17.70
2022-10-24T21:41:28.011Z,17.70
2022-10-24T21:43:55.311Z,17.70
2022-10-24T21:46:25.903Z,17.70
2022-10-24T21:48:55.055Z,17.70
2022-10-24T21:51:25.983Z,17.70
2022-10-24T21:53:58.387Z,17.70
2022-10-24T21:56:29.621Z,17.60
2022-10-24T21:58:59.812Z,17.60
2022-10-24T22:01:30.741Z,17.60
2022-10-24T22:03:59.661Z,17.60
2022-10-24T22:06:28.625Z,17.60
2022-10-24T22:08:56.018Z,17.60
2022-10-24T22:11:27.312Z,17.60
2022-10-24T22:13:54.490Z,17.60
2022-10-24T22:16:25.507Z,17.60
2022-10-24T22:18:52.833Z,17.60
2022-10-24T22:21:46.423Z,17.60
2022-10-24T22:24:20.525Z,17.60
2022-10-24T22:26:48.272Z,17.60
2022-10-24T22:29:19.487Z,17.60
2022-10-24T22:31:47.442Z,17.60
2022-10-24T22:34:24.368Z,17.50
2022-10-24T22:37:24.646Z,17.50
2022-10-24T22:39:51.919Z,17.50
2022-10-24T22:42:20.295Z,17.50
2022-10-24T22:44:48.264Z,17.50
2022-10-24T22:47:41.379Z,17.50
2022-10-24T22:50:21.432Z,17.50
2022-10-24T22:52:49.688Z,17.70
2022-10-24T22:55:34.969Z,17.50
2022-10-24T22:58:02.170Z,17.50
2022-10-24T23:00:29.805Z,17.50
2022-10-24T23:03:34.360Z,17.50
2022-10-24T23:06:41.275Z,17.50
2022-10-24T23:09:11.347Z,17.50
2022-10-24T23:11:39.571Z,17.40
2022-10-24T23:14:06.738Z,17.40
2022-10-24T23:17:07.044Z,17.40
2022-10-24T23:19:34.617Z,17.40
2022-10-24T23:22:19.380Z,17.40
2022-10-24T23:24:46.387Z,17.40
2022-10-24T23:27:13.203Z,17.50
2022-10-24T23:29:45.831Z,17.40
2022-10-24T23:32:30.233Z,17.40
2022-10-24T23:34:59.017Z,17.30
2022-10-24T23:37:45.608Z,17.40
2022-10-24T23:40:17.657Z,17.40
2022-10-24T23:42:45.870Z,17.40
2022-10-24T23:45:14.440Z,17.30
2022-10-24T23:48:24.549Z,17.30
2022-10-24T23:51:11.879Z,17.30
2022-10-24T23:53:54.984Z,17.30
2022-10-24T23:56:28.469Z,17.30
2022-10-24T23:58:56.271Z,17.30
